sensor_id;sensor_type;location;lat;lon;timestamp;pressure;altitude;pressure_sealevel;temperature;humidity
12178;BME280;6152;48.728;9.256;2024-03-02T00:01:14;95938.50;;;4.91;100.00
12178;BME280;6152;48.728;9.256;2024-03-02T00:03:41;95930.78;;;4.91;100.00
12178;BME280;6152;48.728;9.256;2024-03-02T00:06:08;95929.22;;;4.88;100.00
12178;BME280;6152;48.728;9.256;2024-03-02T00:08:34;95930.38;;;4.83;100.00
12178;BME280;6152;48.728;9.256;2024-03-02T00:11:01;95940.69;;;4.83;100.00
12178;BME280;6152;48.728;9.256;2024-03-02T00:13:31;95935.63;;;4.81;100.00
12178;BME280;6152;48.728;9.256;2024-03-02T00:15:58;95932.22;;;4.81;100.00
12178;BME280;6152;48.728;9.256;2024-03-02T00:18:35;95931.50;;;4.79;100.00
12178;BME280;6152;48.728;9.256;2024-03-02T00:21:02;95941.03;;;4.77;100.00
12178;BME280;6152;48.728;9.256;2024-03-02T00:23:33;95942.88;;;4.75;100.00
12178;BME280;6152;48.728;9.256;2024-03-02T00:25:59;95939.41;;;4.76;100.00
12178;BME280;6152;48.728;9.256;2024-03-02T00:28:29;95942.72;;;4.78;100.00
12178;BME280;6152;48.728;9.256;2024-03-02T00:31:06;95944.69;;;4.73;100.00
12178;BME280;6152;48.728;9.256;2024-03-02T00:33:47;95948.03;;;4.75;100.00
12178;BME280;6152;48.728;9.256;2024-03-02T00:36:21;95948.41;;;4.69;100.00
12178;BME280;6152;48.728;9.256;2024-03-02T00:38:50;95946.72;;;4.68;100.00
12178;BME280;6152;48.728;9.256;2024-03-02T00:41:27;95953.69;;;4.66;100.00
12178;BME280;6152;48.728;9.256;2024-03-02T00:44:04;95948.53;;;4.66;100.00
12178;BME280;6152;48.728;9.256;2024-03-02T00:46:35;95947.81;;;4.64;100.00
12178;BME280;6152;48.728;9.256;2024-03-02T00:49:03;95950.38;;;4.64;100.00
12178;BME280;6152;48.728;9.256;2024-03-02T00:51:34;95948.06;;;4.59;100.00
12178;BME280;6152;48.728;9.256;2024-03-02T00:54:02;95949.91;;;4.57;100.00
12178;BME280;6152;48.728;9.256;2024-03-02T00:56:30;95949.06;;;4.56;100.00
12178;BME280;6152;48.728;9.256;2024-03-02T00:58:57;95944.09;;;4.53;100.00
12178;BME280;6152;48.728;9.256;2024-03-02T01:01:23;95933.78;;;4.53;100.00
12178;BME280;6152;48.728;9.256;2024-03-02T01:03:50;95944.16;;;4.52;100.00
12178;BME280;6152;48.728;9.256;2024-03-02T01:06:16;95930.47;;;4.51;100.00
12178;BME280;6152;48.728;9.256;2024-03-02T01:08:43;95931.44;;;4.49;100.00
12178;BME280;6152;48.728;9.256;2024-03-02T01:11:10;95934.97;;;4.48;100.00
12178;BME280;6152;48.728;9.256;2024-03-02T01:13:36;95940.78;;;4.51;100.00
12178;BME280;6152;48.728;9.256;2024-03-02T01:16:02;95944.25;;;4.50;100.00
12178;BME280;6152;48.728;9.256;2024-03-02T01:18:29;95933.28;;;4.47;100.00
12178;BME280;6152;48.728;9.256;2024-03-02T01:20:56;95941.09;;;4.45;100.00
12178;BME280;6152;48.728;9.256;2024-03-02T01:23:23;95939.44;;;4.44;100.00
12178;BME280;6152;48.728;9.256;2024-03-02T01:25:50;95934.38;;;4.43;100.00
12178;BME280;6152;48.728;9.256;2024-03-02T01:28:16;95940.59;;;4.39;100.00
12178;BME280;6152;48.728;9.256;2024-03-02T01:30:42;95936.28;;;4.39;100.00
12178;BME280;6152;48.728;9.256;2024-03-02T01:33:09;95922.69;;;4.37;100.00
12178;BME280;6152;48.728;9.256;2024-03-02T01:35:35;95929.47;;;4.38;100.00
12178;BME280;6152;48.728;9.256;2024-03-02T01:38:01;95927.84;;;4.37;100.00
12178;BME280;6152;48.728;9.256;2024-03-02T01:40:27;95928.63;;;4.38;100.00
12178;BME280;6152;48.728;9.256;2024-03-02T01:42:54;95921.75;;;4.38;100.00
12178;BME280;6152;48.728;9.256;2024-03-02T01:45:21;95921.91;;;4.35;100.00
12178;BME280;6152;48.728;9.256;2024-03-02T01:47:48;95927.06;;;4.35;100.00
12178;BME280;6152;48.728;9.256;2024-03-02T01:50:14;95925.44;;;4.34;100.00
12178;BME280;6152;48.728;9.256;2024-03-02T01:52:41;95933.28;;;4.31;100.00
12178;BME280;6152;48.728;9.256;2024-03-02T01:55:07;95928.13;;;4.31;100.00
12178;BME280;6152;48.728;9.256;2024-03-02T01:57:34;95935.13;;;4.29;100.00
12178;BME280;6152;48.728;9.256;2024-03-02T02:00:01;95919.84;;;4.26;100.00
12178;BME280;6152;48.728;9.256;2024-03-02T02:02:27;95921.66;;;4.24;100.00
12178;BME280;6152;48.728;9.256;2024-03-02T02:04:53;95921.94;;;4.20;100.00
12178;BME280;6152;48.728;9.256;2024-03-02T02:07:19;95932.47;;;4.15;100.00
12178;BME280;6152;48.728;9.256;2024-03-02T02:09:46;95937.78;;;4.12;100.00
12178;BME280;6152;48.728;9.256;2024-03-02T02:12:12;95935.28;;;4.11;100.00
12178;BME280;6152;48.728;9.256;2024-03-02T02:14:38;95929.47;;;4.07;100.00
12178;BME280;6152;48.728;9.256;2024-03-02T02:17:05;95929.81;;;4.01;100.00
12178;BME280;6152;48.728;9.256;2024-03-02T02:19:32;95925.75;;;3.97;100.00
12178;BME280;6152;48.728;9.256;2024-03-02T02:21:58;95924.28;;;3.93;100.00
12178;BME280;6152;48.728;9.256;2024-03-02T02:24:24;95914.22;;;3.88;100.00
12178;BME280;6152;48.728;9.256;2024-03-02T02:26:50;95923.00;;;3.84;100.00
12178;BME280;6152;48.728;9.256;2024-03-02T02:29:16;95922.41;;;3.79;100.00
12178;BME280;6152;48.728;9.256;2024-03-02T02:31:43;95921.00;;;3.74;100.00
12178;BME280;6152;48.728;9.256;2024-03-02T02:34:09;95919.50;;;3.70;100.00
12178;BME280;6152;48.728;9.256;2024-03-02T02:36:38;95912.03;;;3.65;100.00
12178;BME280;6152;48.728;9.256;2024-03-02T02:39:05;95908.88;;;3.60;100.00
12178;BME280;6152;48.728;9.256;2024-03-02T02:41:33;95910.69;;;3.58;100.00
12178;BME280;6152;48.728;9.256;2024-03-02T02:43:59;95906.53;;;3.55;100.00
12178;BME280;6152;48.728;9.256;2024-03-02T02:46:25;95897.22;;;3.53;100.00
12178;BME280;6152;48.728;9.256;2024-03-02T02:48:51;95893.09;;;3.50;100.00
12178;BME280;6152;48.728;9.256;2024-03-02T02:51:19;95891.59;;;3.46;100.00
12178;BME280;6152;48.728;9.256;2024-03-02T02:53:45;95891.75;;;3.43;100.00
12178;BME280;6152;48.728;9.256;2024-03-02T02:56:11;95903.03;;;3.41;100.00
12178;BME280;6152;48.728;9.256;2024-03-02T02:58:37;95889.50;;;3.37;100.00
12178;BME280;6152;48.728;9.256;2024-03-02T03:01:03;95888.84;;;3.34;100.00
12178;BME280;6152;48.728;9.256;2024-03-02T03:03:29;95888.91;;;3.32;100.00
12178;BME280;6152;48.728;9.256;2024-03-02T03:05:56;95888.91;;;3.32;100.00
12178;BME280;6152;48.728;9.256;2024-03-02T03:08:22;95895.03;;;3.30;100.00
12178;BME280;6152;48.728;9.256;2024-03-02T03:10:49;95891.56;;;3.31;100.00
12178;BME280;6152;48.728;9.256;2024-03-02T03:13:15;95889.91;;;3.30;100.00
12178;BME280;6152;48.728;9.256;2024-03-02T03:15:41;95895.88;;;3.30;100.00
12178;BME280;6152;48.728;9.256;2024-03-02T03:18:07;95902.66;;;3.31;100.00
12178;BME280;6152;48.728;9.256;2024-03-02T03:20:34;95903.44;;;3.33;100.00
12178;BME280;6152;48.728;9.256;2024-03-02T03:23:00;95902.53;;;3.34;100.00
12178;BME280;6152;48.728;9.256;2024-03-02T03:25:26;95902.44;;;3.36;100.00
12178;BME280;6152;48.728;9.256;2024-03-02T03:27:52;95900.53;;;3.39;100.00
12178;BME280;6152;48.728;9.256;2024-03-02T03:30:19;95901.44;;;3.38;100.00
12178;BME280;6152;48.728;9.256;2024-03-02T03:32:45;95897.28;;;3.36;100.00
12178;BME280;6152;48.728;9.256;2024-03-02T03:35:11;95902.66;;;3.31;100.00
12178;BME280;6152;48.728;9.256;2024-03-02T03:37:38;95901.91;;;3.29;100.00
12178;BME280;6152;48.728;9.256;2024-03-02T03:40:05;95894.19;;;3.29;100.00
12178;BME280;6152;48.728;9.256;2024-03-02T03:42:38;95892.69;;;3.25;100.00
12178;BME280;6152;48.728;9.256;2024-03-02T03:45:05;95896.16;;;3.24;100.00
12178;BME280;6152;48.728;9.256;2024-03-02T03:47:32;95897.16;;;3.22;100.00
12178;BME280;6152;48.728;9.256;2024-03-02T03:49:58;95893.19;;;3.16;100.00
12178;BME280;6152;48.728;9.256;2024-03-02T03:52:25;95895.91;;;3.13;100.00
12178;BME280;6152;48.728;9.256;2024-03-02T03:54:51;95896.13;;;3.09;100.00
12178;BME280;6152;48.728;9.256;2024-03-02T03:57:17;95892.81;;;3.07;100.00
12178;BME280;6152;48.728;9.256;2024-03-02T03:59:44;95894.63;;;3.04;100.00
12178;BME280;6152;48.728;9.256;2024-03-02T04:02:10;95894.78;;;3.01;100.00
12178;BME280;6152;48.728;9.256;2024-03-02T04:04:38;95894.19;;;2.96;100.00
12178;BME280;6152;48.728;9.256;2024-03-02T04:07:04;95900.22;;;2.95;100.00
12178;BME280;6152;48.728;9.256;2024-03-02T04:09:30;95902.13;;;2.92;100.00
12178;BME280;6152;48.728;9.256;2024-03-02T04:11:57;95892.91;;;2.88;100.00
12178;BME280;6152;48.728;9.256;2024-03-02T04:14:23;95897.34;;;2.84;100.00
12178;BME280;6152;48.728;9.256;2024-03-02T04:16:49;95908.63;;;2.82;100.00
12178;BME280;6152;48.728;9.256;2024-03-02T04:19:15;95898.50;;;2.79;100.00
12178;BME280;6152;48.728;9.256;2024-03-02T04:21:41;95901.97;;;2.78;100.00
12178;BME280;6152;48.728;9.256;2024-03-02T04:24:07;95905.44;;;2.77;100.00
12178;BME280;6152;48.728;9.256;2024-03-02T04:26:34;95901.28;;;2.74;100.00
12178;BME280;6152;48.728;9.256;2024-03-02T04:29:00;95901.13;;;2.77;100.00
12178;BME280;6152;48.728;9.256;2024-03-02T04:31:26;95891.84;;;2.75;100.00
12178;BME280;6152;48.728;9.256;2024-03-02T04:33:52;95897.00;;;2.75;100.00
12178;BME280;6152;48.728;9.256;2024-03-02T04:36:19;95905.59;;;2.74;100.00
12178;BME280;6152;48.728;9.256;2024-03-02T04:38:46;95903.94;;;2.73;100.00
12178;BME280;6152;48.728;9.256;2024-03-02T04:41:13;95895.47;;;2.71;100.00
12178;BME280;6152;48.728;9.256;2024-03-02T04:43:39;95897.31;;;2.69;100.00
12178;BME280;6152;48.728;9.256;2024-03-02T04:46:06;95904.22;;;2.67;100.00
12178;BME280;6152;48.728;9.256;2024-03-02T04:48:33;95903.56;;;2.63;100.00
12178;BME280;6152;48.728;9.256;2024-03-02T04:51:00;95901.06;;;2.62;100.00
12178;BME280;6152;48.728;9.256;2024-03-02T04:53:26;95906.97;;;2.64;100.00
12178;BME280;6152;48.728;9.256;2024-03-02T04:55:52;95900.25;;;2.61;100.00
12178;BME280;6152;48.728;9.256;2024-03-02T04:58:36;95913.13;;;2.60;100.00
12178;BME280;6152;48.728;9.256;2024-03-02T05:01:02;95907.31;;;2.56;100.00
12178;BME280;6152;48.728;9.256;2024-03-02T05:03:28;95902.44;;;2.51;100.00
12178;BME280;6152;48.728;9.256;2024-03-02T05:05:54;95903.31;;;2.50;100.00
12178;BME280;6152;48.728;9.256;2024-03-02T05:08:20;95901.66;;;2.49;100.00
12178;BME280;6152;48.728;9.256;2024-03-02T05:10:46;95907.78;;;2.47;100.00
12178;BME280;6152;48.728;9.256;2024-03-02T05:13:12;95898.50;;;2.44;100.00
12178;BME280;6152;48.728;9.256;2024-03-02T05:15:38;95900.28;;;2.42;100.00
12178;BME280;6152;48.728;9.256;2024-03-02T05:18:05;95900.28;;;2.42;100.00
12178;BME280;6152;48.728;9.256;2024-03-02T05:20:31;95907.09;;;2.43;100.00
12178;BME280;6152;48.728;9.256;2024-03-02T05:22:57;95902.84;;;2.42;100.00
12178;BME280;6152;48.728;9.256;2024-03-02T05:25:23;95903.75;;;2.41;100.00
12178;BME280;6152;48.728;9.256;2024-03-02T05:27:49;95907.25;;;2.40;100.00
12178;BME280;6152;48.728;9.256;2024-03-02T05:30:15;95907.41;;;2.37;100.00
12178;BME280;6152;48.728;9.256;2024-03-02T05:32:41;95904.06;;;2.35;100.00
12178;BME280;6152;48.728;9.256;2024-03-02T05:35:08;95910.84;;;2.36;100.00
12178;BME280;6152;48.728;9.256;2024-03-02T05:37:34;95915.16;;;2.36;100.00
12178;BME280;6152;48.728;9.256;2024-03-02T05:40:00;95914.31;;;2.35;100.00
12178;BME280;6152;48.728;9.256;2024-03-02T05:42:26;95916.00;;;2.36;100.00
12178;BME280;6152;48.728;9.256;2024-03-02T05:44:53;95913.47;;;2.35;100.00
12178;BME280;6152;48.728;9.256;2024-03-02T05:47:20;95915.31;;;2.33;100.00
12178;BME280;6152;48.728;9.256;2024-03-02T05:49:46;95913.72;;;2.30;100.00
12178;BME280;6152;48.728;9.256;2024-03-02T05:52:12;95916.34;;;2.29;100.00
12178;BME280;6152;48.728;9.256;2024-03-02T05:54:38;95921.56;;;2.27;100.00
12178;BME280;6152;48.728;9.256;2024-03-02T05:57:05;95912.94;;;2.28;100.00
12178;BME280;6152;48.728;9.256;2024-03-02T05:59:57;95913.09;;;2.25;100.00
12178;BME280;6152;48.728;9.256;2024-03-02T06:02:24;95920.03;;;2.23;100.00
12178;BME280;6152;48.728;9.256;2024-03-02T06:04:55;95919.34;;;2.20;100.00
12178;BME280;6152;48.728;9.256;2024-03-02T06:07:22;95918.53;;;2.19;100.00
12178;BME280;6152;48.728;9.256;2024-03-02T06:09:48;95921.09;;;2.19;100.00
12178;BME280;6152;48.728;9.256;2024-03-02T06:12:16;95925.47;;;2.17;100.00
12178;BME280;6152;48.728;9.256;2024-03-02T06:14:43;95938.31;;;2.17;100.00
12178;BME280;6152;48.728;9.256;2024-03-02T06:17:09;95928.63;;;2.22;100.00
12178;BME280;6152;48.728;9.256;2024-03-02T06:19:36;95930.31;;;2.23;100.00
12178;BME280;6152;48.728;9.256;2024-03-02T06:22:02;95921.56;;;2.27;100.00
12178;BME280;6152;48.728;9.256;2024-03-02T06:24:28;95922.38;;;2.28;100.00
12178;BME280;6152;48.728;9.256;2024-03-02T06:26:54;95933.97;;;2.36;100.00
12178;BME280;6152;48.728;9.256;2024-03-02T06:29:20;95926.25;;;2.36;100.00
12178;BME280;6152;48.728;9.256;2024-03-02T06:31:47;95929.56;;;2.38;100.00
12178;BME280;6152;48.728;9.256;2024-03-02T06:34:13;95927.78;;;2.40;100.00
12178;BME280;6152;48.728;9.256;2024-03-02T06:36:39;95930.25;;;2.42;100.00
12178;BME280;6152;48.728;9.256;2024-03-02T06:39:07;95930.94;;;2.45;100.00
12178;BME280;6152;48.728;9.256;2024-03-02T06:41:33;95925.66;;;2.48;100.00
12178;BME280;6152;48.728;9.256;2024-03-02T06:43:59;95937.44;;;2.52;100.00
12178;BME280;6152;48.728;9.256;2024-03-02T06:46:26;95928.69;;;2.57;100.00
12178;BME280;6152;48.728;9.256;2024-03-02T06:48:52;95940.34;;;2.64;100.00
12178;BME280;6152;48.728;9.256;2024-03-02T06:51:18;95943.38;;;2.72;100.00
12178;BME280;6152;48.728;9.256;2024-03-02T06:53:44;95950.78;;;2.78;100.00
12178;BME280;6152;48.728;9.256;2024-03-02T06:56:10;95946.84;;;2.88;100.00
12178;BME280;6152;48.728;9.256;2024-03-02T06:58:36;95948.06;;;2.98;100.00
12178;BME280;6152;48.728;9.256;2024-03-02T07:01:02;95950.84;;;3.11;100.00
12178;BME280;6152;48.728;9.256;2024-03-02T07:03:28;95958.16;;;3.18;100.00
12178;BME280;6152;48.728;9.256;2024-03-02T07:05:55;95951.66;;;3.28;100.00
12178;BME280;6152;48.728;9.256;2024-03-02T07:08:21;95955.69;;;3.34;100.00
12178;BME280;6152;48.728;9.256;2024-03-02T07:10:47;95946.06;;;3.37;100.00
12178;BME280;6152;48.728;9.256;2024-03-02T07:13:13;95950.88;;;3.43;100.00
12178;BME280;6152;48.728;9.256;2024-03-02T07:15:39;95951.63;;;3.45;100.00
12178;BME280;6152;48.728;9.256;2024-03-02T07:18:24;95943.38;;;3.56;100.00
12178;BME280;6152;48.728;9.256;2024-03-02T07:20:50;95952.94;;;3.70;100.00
12178;BME280;6152;48.728;9.256;2024-03-02T07:23:16;95954.38;;;3.75;100.00
12178;BME280;6152;48.728;9.256;2024-03-02T07:25:42;95955.38;;;3.88;100.00
12178;BME280;6152;48.728;9.256;2024-03-02T07:28:08;95959.03;;;4.00;100.00
12178;BME280;6152;48.728;9.256;2024-03-02T07:30:34;95961.69;;;4.14;100.00
12178;BME280;6152;48.728;9.256;2024-03-02T07:33:00;95961.53;;;4.33;100.00
12178;BME280;6152;48.728;9.256;2024-03-02T07:35:26;95966.38;;;4.54;100.00
12178;BME280;6152;48.728;9.256;2024-03-02T07:37:53;95959.84;;;4.79;100.00
12178;BME280;6152;48.728;9.256;2024-03-02T07:40:20;95963.69;;;5.01;100.00
12178;BME280;6152;48.728;9.256;2024-03-02T07:42:46;95964.38;;;5.19;100.00
12178;BME280;6152;48.728;9.256;2024-03-02T07:45:12;95956.31;;;5.39;100.00
12178;BME280;6152;48.728;9.256;2024-03-02T07:47:38;95957.59;;;5.46;100.00
12178;BME280;6152;48.728;9.256;2024-03-02T07:50:05;95953.00;;;5.51;100.00
12178;BME280;6152;48.728;9.256;2024-03-02T07:52:32;95954.13;;;5.62;100.00
12178;BME280;6152;48.728;9.256;2024-03-02T07:54:59;95959.47;;;5.73;100.00
12178;BME280;6152;48.728;9.256;2024-03-02T07:57:25;95960.25;;;5.89;100.00
12178;BME280;6152;48.728;9.256;2024-03-02T07:59:52;95963.16;;;5.97;100.00
12178;BME280;6152;48.728;9.256;2024-03-02T08:02:18;95968.44;;;6.09;100.00
12178;BME280;6152;48.728;9.256;2024-03-02T08:04:44;95967.88;;;6.19;100.00
12178;BME280;6152;48.728;9.256;2024-03-02T08:07:11;95967.47;;;6.25;100.00
12178;BME280;6152;48.728;9.256;2024-03-02T08:09:38;95962.94;;;6.28;100.00
12178;BME280;6152;48.728;9.256;2024-03-02T08:12:04;95962.94;;;6.28;100.00
12178;BME280;6152;48.728;9.256;2024-03-02T08:14:30;95959.63;;;6.40;100.00
12178;BME280;6152;48.728;9.256;2024-03-02T08:16:56;95963.47;;;6.47;100.00
12178;BME280;6152;48.728;9.256;2024-03-02T08:19:23;95959.59;;;6.54;100.00
12178;BME280;6152;48.728;9.256;2024-03-02T08:21:49;95954.84;;;6.61;100.00
12178;BME280;6152;48.728;9.256;2024-03-02T08:24:15;95950.31;;;6.65;100.00
12178;BME280;6152;48.728;9.256;2024-03-02T08:26:42;95943.91;;;6.70;100.00
12178;BME280;6152;48.728;9.256;2024-03-02T08:29:09;95952.09;;;6.77;100.00
12178;BME280;6152;48.728;9.256;2024-03-02T08:31:35;95940.44;;;6.84;100.00
12178;BME280;6152;48.728;9.256;2024-03-02T08:34:01;95947.63;;;6.93;100.00
12178;BME280;6152;48.728;9.256;2024-03-02T08:36:28;95952.06;;;7.03;100.00
12178;BME280;6152;48.728;9.256;2024-03-02T08:38:54;95945.69;;;7.09;100.00
12178;BME280;6152;48.728;9.256;2024-03-02T08:41:20;95958.00;;;7.18;100.00
12178;BME280;6152;48.728;9.256;2024-03-02T08:43:46;95953.16;;;7.26;100.00
12178;BME280;6152;48.728;9.256;2024-03-02T08:46:12;95952.75;;;7.32;100.00
12178;BME280;6152;48.728;9.256;2024-03-02T08:48:39;95950.25;;;7.18;100.00
12178;BME280;6152;48.728;9.256;2024-03-02T08:51:05;95953.16;;;7.26;100.00
12178;BME280;6152;48.728;9.256;2024-03-02T08:53:33;95952.25;;;7.27;100.00
12178;BME280;6152;48.728;9.256;2024-03-02T08:55:59;95950.06;;;7.46;100.00
12178;BME280;6152;48.728;9.256;2024-03-02T08:58:25;95942.72;;;7.66;100.00
12178;BME280;6152;48.728;9.256;2024-03-02T09:00:52;95944.50;;;7.78;100.00
12178;BME280;6152;48.728;9.256;2024-03-02T09:03:18;95941.97;;;8.01;100.00
12178;BME280;6152;48.728;9.256;2024-03-02T09:05:44;95944.66;;;8.12;100.00
12178;BME280;6152;48.728;9.256;2024-03-02T09:08:10;95955.41;;;8.32;100.00
12178;BME280;6152;48.728;9.256;2024-03-02T09:10:36;95937.50;;;8.52;100.00
12178;BME280;6152;48.728;9.256;2024-03-02T09:13:04;95952.38;;;8.74;100.00
12178;BME280;6152;48.728;9.256;2024-03-02T09:15:30;95943.13;;;8.94;100.00
12178;BME280;6152;48.728;9.256;2024-03-02T09:17:56;95945.56;;;9.08;100.00
12178;BME280;6152;48.728;9.256;2024-03-02T09:20:22;95949.41;;;9.26;100.00
12178;BME280;6152;48.728;9.256;2024-03-02T09:22:49;95944.84;;;9.41;100.00
12178;BME280;6152;48.728;9.256;2024-03-02T09:25:15;95941.22;;;9.65;100.00
12178;BME280;6152;48.728;9.256;2024-03-02T09:27:42;95949.53;;;9.93;100.00
12178;BME280;6152;48.728;9.256;2024-03-02T09:30:08;95951.41;;;10.13;100.00
12178;BME280;6152;48.728;9.256;2024-03-02T09:32:36;95936.06;;;10.32;100.00
12178;BME280;6152;48.728;9.256;2024-03-02T09:35:02;95936.84;;;10.55;100.00
12178;BME280;6152;48.728;9.256;2024-03-02T09:37:29;95938.59;;;10.65;100.00
12178;BME280;6152;48.728;9.256;2024-03-02T09:39:55;95927.63;;;10.94;100.00
12178;BME280;6152;48.728;9.256;2024-03-02T09:42:21;95927.88;;;11.23;100.00
12178;BME280;6152;48.728;9.256;2024-03-02T09:44:48;95936.69;;;11.31;100.00
12178;BME280;6152;48.728;9.256;2024-03-02T09:47:14;95928.22;;;11.18;100.00
12178;BME280;6152;48.728;9.256;2024-03-02T09:49:41;95928.63;;;10.82;100.00
12178;BME280;6152;48.728;9.256;2024-03-02T09:52:07;95923.78;;;10.77;100.00
12178;BME280;6152;48.728;9.256;2024-03-02T09:54:34;95917.88;;;11.07;100.00
12178;BME280;6152;48.728;9.256;2024-03-02T09:57:00;95918.81;;;12.19;100.00
12178;BME280;6152;48.728;9.256;2024-03-02T09:59:28;95910.66;;;13.87;88.67
12178;BME280;6152;48.728;9.256;2024-03-02T10:02:04;95903.34;;;16.46;74.03
12178;BME280;6152;48.728;9.256;2024-03-02T10:04:33;95895.56;;;18.71;57.50
12178;BME280;6152;48.728;9.256;2024-03-02T10:09:37;95882.63;;;21.98;42.83
12178;BME280;6152;48.728;9.256;2024-03-02T10:12:08;95880.84;;;22.39;40.06
12178;BME280;6152;48.728;9.256;2024-03-02T10:14:35;95884.75;;;22.91;38.20
12178;BME280;6152;48.728;9.256;2024-03-02T10:17:06;95877.59;;;22.44;38.68
12178;BME280;6152;48.728;9.256;2024-03-02T10:19:33;95880.44;;;23.63;38.14
12178;BME280;6152;48.728;9.256;2024-03-02T10:22:01;95875.44;;;22.60;36.95
12178;BME280;6152;48.728;9.256;2024-03-02T10:24:34;95871.41;;;23.51;36.81
12178;BME280;6152;48.728;9.256;2024-03-02T10:27:01;95868.72;;;22.64;36.00
12178;BME280;6152;48.728;9.256;2024-03-02T10:29:30;95871.53;;;22.56;38.16
12178;BME280;6152;48.728;9.256;2024-03-02T10:31:56;95865.22;;;22.57;37.46
12178;BME280;6152;48.728;9.256;2024-03-02T10:34:25;95872.34;;;22.16;37.34
12178;BME280;6152;48.728;9.256;2024-03-02T10:36:51;95871.00;;;23.48;36.28
12178;BME280;6152;48.728;9.256;2024-03-02T10:39:17;95864.47;;;23.37;35.42
12178;BME280;6152;48.728;9.256;2024-03-02T10:41:44;95864.03;;;23.40;35.52
12178;BME280;6152;48.728;9.256;2024-03-02T10:44:11;95852.13;;;24.99;34.03
12178;BME280;6152;48.728;9.256;2024-03-02T10:46:38;95861.41;;;24.77;32.67
12178;BME280;6152;48.728;9.256;2024-03-02T10:49:06;95850.59;;;25.16;32.63
12178;BME280;6152;48.728;9.256;2024-03-02T10:51:34;95841.66;;;26.52;32.05
12178;BME280;6152;48.728;9.256;2024-03-02T10:54:03;95844.91;;;25.69;32.38
12178;BME280;6152;48.728;9.256;2024-03-02T10:56:31;95833.31;;;26.97;31.36
12178;BME280;6152;48.728;9.256;2024-03-02T11:01:56;95830.72;;;29.34;28.77
12178;BME280;6152;48.728;9.256;2024-03-02T11:04:25;95821.72;;;29.12;27.19
12178;BME280;6152;48.728;9.256;2024-03-02T11:06:54;95818.25;;;29.00;27.05
12178;BME280;6152;48.728;9.256;2024-03-02T11:09:26;95815.13;;;26.57;28.94
12178;BME280;6152;48.728;9.256;2024-03-02T11:12:28;95808.34;;;25.76;31.33
12178;BME280;6152;48.728;9.256;2024-03-02T11:14:56;95799.72;;;26.89;28.94
12178;BME280;6152;48.728;9.256;2024-03-02T11:17:23;95798.53;;;26.37;29.34
12178;BME280;6152;48.728;9.256;2024-03-02T11:19:50;95797.38;;;27.52;28.68
12178;BME280;6152;48.728;9.256;2024-03-02T11:22:17;95798.38;;;25.89;29.97
12178;BME280;6152;48.728;9.256;2024-03-02T11:24:51;95794.84;;;27.16;29.12
12178;BME280;6152;48.728;9.256;2024-03-02T11:33:08;95779.22;;;28.24;27.72
12178;BME280;6152;48.728;9.256;2024-03-02T11:35:53;95773.91;;;27.66;27.28
12178;BME280;6152;48.728;9.256;2024-03-02T11:38:19;95776.22;;;27.74;26.31
12178;BME280;6152;48.728;9.256;2024-03-02T11:40:45;95765.88;;;28.13;26.81
12178;BME280;6152;48.728;9.256;2024-03-02T11:43:11;95759.09;;;29.46;25.02
12178;BME280;6152;48.728;9.256;2024-03-02T11:45:38;95757.22;;;30.84;25.22
12178;BME280;6152;48.728;9.256;2024-03-02T11:48:08;95754.69;;;30.50;23.47
12178;BME280;6152;48.728;9.256;2024-03-02T11:50:36;95743.81;;;30.40;24.29
12178;BME280;6152;48.728;9.256;2024-03-02T11:53:10;95739.41;;;30.99;23.15
12178;BME280;6152;48.728;9.256;2024-03-02T11:55:37;95739.53;;;29.01;23.76
12178;BME280;6152;48.728;9.256;2024-03-02T11:58:04;95737.88;;;29.00;24.24
12178;BME280;6152;48.728;9.256;2024-03-02T12:00:31;95729.19;;;28.93;24.66
12178;BME280;6152;48.728;9.256;2024-03-02T12:03:12;95719.00;;;29.23;24.81
12178;BME280;6152;48.728;9.256;2024-03-02T12:05:38;95720.38;;;28.92;25.67
12178;BME280;6152;48.728;9.256;2024-03-02T12:08:06;95713.34;;;26.84;26.46
12178;BME280;6152;48.728;9.256;2024-03-02T12:10:33;95720.63;;;27.41;27.01
12178;BME280;6152;48.728;9.256;2024-03-02T12:13:06;95721.38;;;27.60;25.97
12178;BME280;6152;48.728;9.256;2024-03-02T12:15:34;95710.75;;;25.56;27.83
12178;BME280;6152;48.728;9.256;2024-03-02T12:18:02;95703.06;;;26.21;28.19
12178;BME280;6152;48.728;9.256;2024-03-02T12:20:30;95705.38;;;25.81;27.92
12178;BME280;6152;48.728;9.256;2024-03-02T12:22:59;95704.56;;;26.77;28.26
12178;BME280;6152;48.728;9.256;2024-03-02T12:25:26;95708.56;;;27.85;26.69
12178;BME280;6152;48.728;9.256;2024-03-02T12:27:55;95703.19;;;28.20;25.19
12178;BME280;6152;48.728;9.256;2024-03-02T12:30:22;95694.28;;;28.31;25.14
12178;BME280;6152;48.728;9.256;2024-03-02T12:32:50;95697.00;;;28.20;25.08
12178;BME280;6152;48.728;9.256;2024-03-02T12:35:17;95700.50;;;28.77;23.99
12178;BME280;6152;48.728;9.256;2024-03-02T12:37:48;95684.00;;;30.45;24.39
12178;BME280;6152;48.728;9.256;2024-03-02T12:40:16;95688.66;;;31.77;21.63
12178;BME280;6152;48.728;9.256;2024-03-02T12:42:45;95690.84;;;31.11;22.08
12178;BME280;6152;48.728;9.256;2024-03-02T12:45:12;95676.44;;;30.95;22.71
12178;BME280;6152;48.728;9.256;2024-03-02T12:47:40;95677.63;;;29.69;23.19
12178;BME280;6152;48.728;9.256;2024-03-02T12:50:07;95673.63;;;30.32;23.46
12178;BME280;6152;48.728;9.256;2024-03-02T12:52:34;95671.28;;;30.62;21.90
12178;BME280;6152;48.728;9.256;2024-03-02T12:55:02;95664.91;;;30.20;22.26
12178;BME280;6152;48.728;9.256;2024-03-02T12:57:30;95669.84;;;29.68;23.42
12178;BME280;6152;48.728;9.256;2024-03-02T13:00:01;95674.16;;;29.19;24.24
12178;BME280;6152;48.728;9.256;2024-03-02T13:02:35;95662.84;;;28.67;24.09
12178;BME280;6152;48.728;9.256;2024-03-02T13:05:02;95674.97;;;27.78;25.19
12178;BME280;6152;48.728;9.256;2024-03-02T13:07:28;95662.72;;;26.47;26.16
12178;BME280;6152;48.728;9.256;2024-03-02T13:09:55;95662.44;;;25.28;26.93
12178;BME280;6152;48.728;9.256;2024-03-02T13:12:23;95659.78;;;23.32;29.46
12178;BME280;6152;48.728;9.256;2024-03-02T13:14:53;95663.16;;;22.14;31.35
12178;BME280;6152;48.728;9.256;2024-03-02T13:17:20;95656.09;;;21.40;32.26
12178;BME280;6152;48.728;9.256;2024-03-02T13:19:58;95654.22;;;20.50;33.31
12178;BME280;6152;48.728;9.256;2024-03-02T13:22:25;95655.28;;;19.99;34.29